sensor_id;sensor_type;location;lat;lon;timestamp;pressure;altitude;pressure_sealevel;temperature;humidity
83140;BME280;73027;54.208;19.128;2023-11-19T00:02:21;102206.53;;;4.35;67.26
83140;BME280;73027;54.208;19.128;2023-11-19T00:04:47;102201.09;;;4.13;67.38
83140;BME280;73027;54.208;19.128;2023-11-19T00:07:12;102194.06;;;3.97;67.71
83140;BME280;73027;54.208;19.128;2023-11-19T00:09:39;102194.66;;;3.82;67.79
83140;BME280;73027;54.208;19.128;2023-11-19T00:12:05;102187.63;;;3.68;69.02
83140;BME280;73027;54.208;19.128;2023-11-19T00:14:31;102191.81;;;3.63;69.18
83140;BME280;73027;54.208;19.128;2023-11-19T00:16:56;102166.63;;;3.33;69.80
83140;BME280;73027;54.208;19.128;2023-11-19T00:19:22;102184.59;;;3.41;70.27
83140;BME280;73027;54.208;19.128;2023-11-19T00:21:47;102178.56;;;3.35;71.03
83140;BME280;73027;54.208;19.128;2023-11-19T00:24:13;102180.94;;;3.26;71.54
83140;BME280;73027;54.208;19.128;2023-11-19T00:26:41;102180.84;;;3.22;71.63
83140;BME280;73027;54.208;19.128;2023-11-19T00:29:07;102160.59;;;3.28;72.07
83140;BME280;73027;54.208;19.128;2023-11-19T00:31:32;102183.44;;;3.71;71.59
83140;BME280;73027;54.208;19.128;2023-11-19T00:33:58;102177.75;;;3.86;70.81
83140;BME280;73027;54.208;19.128;2023-11-19T00:36:23;102179.56;;;3.93;70.57
83140;BME280;73027;54.208;19.128;2023-11-19T00:38:50;102173.75;;;4.03;70.19
83140;BME280;73027;54.208;19.128;2023-11-19T00:41:15;102176.47;;;4.14;69.96
83140;BME280;73027;54.208;19.128;2023-11-19T00:43:42;102168.06;;;4.19;69.63
83140;BME280;73027;54.208;19.128;2023-11-19T00:46:07;102162.97;;;4.21;69.58
83140;BME280;73027;54.208;19.128;2023-11-19T00:48:33;102166.38;;;4.21;69.31
83140;BME280;73027;54.208;19.128;2023-11-19T00:50:58;102166.38;;;4.20;68.98
83140;BME280;73027;54.208;19.128;2023-11-19T00:53:24;102156.97;;;4.16;69.20
83140;BME280;73027;54.208;19.128;2023-11-19T00:55:50;102167.19;;;4.19;68.56
83140;BME280;73027;54.208;19.128;2023-11-19T00:58:15;102160.28;;;4.10;68.47
83140;BME280;73027;54.208;19.128;2023-11-19T01:00:42;102156.03;;;4.11;68.87
83140;BME280;73027;54.208;19.128;2023-11-19T01:03:08;102143.38;;;4.17;68.91
83140;BME280;73027;54.208;19.128;2023-11-19T01:05:34;102136.63;;;4.20;68.72
83140;BME280;73027;54.208;19.128;2023-11-19T01:07:59;102132.38;;;4.21;68.66
83140;BME280;73027;54.208;19.128;2023-11-19T01:10:25;102123.91;;;4.25;68.17
83140;BME280;73027;54.208;19.128;2023-11-19T01:12:51;102122.25;;;4.27;68.10
83140;BME280;73027;54.208;19.128;2023-11-19T01:15:17;102122.06;;;4.12;67.27
83140;BME280;73027;54.208;19.128;2023-11-19T01:17:44;102133.78;;;4.02;68.40
83140;BME280;73027;54.208;19.128;2023-11-19T01:20:09;102130.34;;;3.97;68.54
83140;BME280;73027;54.208;19.128;2023-11-19T01:22:37;102128.44;;;3.84;68.66
83140;BME280;73027;54.208;19.128;2023-11-19T01:25:03;102133.66;;;3.92;69.21
83140;BME280;73027;54.208;19.128;2023-11-19T01:27:30;102125.28;;;4.02;69.22
83140;BME280;73027;54.208;19.128;2023-11-19T01:29:55;102121.16;;;4.08;68.94
83140;BME280;73027;54.208;19.128;2023-11-19T01:32:21;102114.47;;;4.16;68.53
83140;BME280;73027;54.208;19.128;2023-11-19T01:34:49;102118.88;;;4.28;68.26
83140;BME280;73027;54.208;19.128;2023-11-19T01:37:14;102128.28;;;4.33;68.17
83140;BME280;73027;54.208;19.128;2023-11-19T01:39:40;102122.34;;;4.33;67.69
83140;BME280;73027;54.208;19.128;2023-11-19T01:42:05;102122.34;;;4.31;68.08
83140;BME280;73027;54.208;19.128;2023-11-19T01:44:31;102120.59;;;4.30;67.67
83140;BME280;73027;54.208;19.128;2023-11-19T01:46:57;102118.06;;;4.30;67.35
83140;BME280;73027;54.208;19.128;2023-11-19T01:49:23;102113.72;;;4.23;67.66
83140;BME280;73027;54.208;19.128;2023-11-19T01:51:49;102113.84;;;4.34;67.94
83140;BME280;73027;54.208;19.128;2023-11-19T01:54:14;102113.25;;;4.52;67.48
83140;BME280;73027;54.208;19.128;2023-11-19T01:56:41;102115.19;;;4.71;67.07
83140;BME280;73027;54.208;19.128;2023-11-19T01:59:07;102111.00;;;4.79;66.65
83140;BME280;73027;54.208;19.128;2023-11-19T02:01:35;102110.25;;;4.88;66.49
83140;BME280;73027;54.208;19.128;2023-11-19T02:04:05;102102.59;;;4.86;66.29
83140;BME280;73027;54.208;19.128;2023-11-19T02:06:32;102110.25;;;4.86;65.95
83140;BME280;73027;54.208;19.128;2023-11-19T02:08:59;102104.22;;;4.81;65.78
83140;BME280;73027;54.208;19.128;2023-11-19T02:11:25;102114.41;;;4.79;65.49
83140;BME280;73027;54.208;19.128;2023-11-19T02:13:57;102096.53;;;4.78;65.29
83140;BME280;73027;54.208;19.128;2023-11-19T02:16:22;102097.47;;;4.85;65.76
83140;BME280;73027;54.208;19.128;2023-11-19T02:18:47;102089.81;;;4.85;65.41
83140;BME280;73027;54.208;19.128;2023-11-19T02:21:13;102087.28;;;4.88;65.53
83140;BME280;73027;54.208;19.128;2023-11-19T02:23:40;102072.78;;;4.85;65.06
83140;BME280;73027;54.208;19.128;2023-11-19T02:26:14;102067.72;;;4.88;64.94
83140;BME280;73027;54.208;19.128;2023-11-19T02:28:43;102071.16;;;4.92;64.84
83140;BME280;73027;54.208;19.128;2023-11-19T02:31:09;102061.81;;;4.95;64.82
83140;BME280;73027;54.208;19.128;2023-11-19T02:33:38;102043.94;;;4.95;64.88
83140;BME280;73027;54.208;19.128;2023-11-19T02:36:05;102048.22;;;4.96;64.59
83140;BME280;73027;54.208;19.128;2023-11-19T02:38:32;102040.56;;;4.96;64.79
83140;BME280;73027;54.208;19.128;2023-11-19T02:40:57;102019.25;;;4.93;64.84
83140;BME280;73027;54.208;19.128;2023-11-19T02:43:23;101997.94;;;4.86;64.69
83140;BME280;73027;54.208;19.128;2023-11-19T02:45:48;102018.41;;;4.95;64.18
83140;BME280;73027;54.208;19.128;2023-11-19T02:48:14;102014.97;;;4.90;64.19
83140;BME280;73027;54.208;19.128;2023-11-19T02:50:43;102010.75;;;4.94;63.83
83140;BME280;73027;54.208;19.128;2023-11-19T02:53:09;102004.78;;;4.90;63.60
83140;BME280;73027;54.208;19.128;2023-11-19T02:55:34;102002.22;;;4.92;63.97
83140;BME280;73027;54.208;19.128;2023-11-19T02:58:04;101988.63;;;4.93;64.07
83140;BME280;73027;54.208;19.128;2023-11-19T03:00:45;101991.97;;;4.89;63.20
83140;BME280;73027;54.208;19.128;2023-11-19T03:03:19;101987.72;;;4.88;63.40
83140;BME280;73027;54.208;19.128;2023-11-19T03:05:51;101986.00;;;4.85;63.73
83140;BME280;73027;54.208;19.128;2023-11-19T03:08:16;101962.13;;;4.78;62.99
83140;BME280;73027;54.208;19.128;2023-11-19T03:10:42;101977.47;;;4.85;63.16
83140;BME280;73027;54.208;19.128;2023-11-19T03:13:12;101975.75;;;4.82;62.71
83140;BME280;73027;54.208;19.128;2023-11-19T03:15:41;101966.31;;;4.73;63.03
83140;BME280;73027;54.208;19.128;2023-11-19T03:18:07;101959.44;;;4.68;63.08
83140;BME280;73027;54.208;19.128;2023-11-19T03:20:32;101959.44;;;4.66;62.99
83140;BME280;73027;54.208;19.128;2023-11-19T03:22:58;101953.44;;;4.61;63.05
83140;BME280;73027;54.208;19.128;2023-11-19T03:25:26;101945.75;;;4.58;62.37
83140;BME280;73027;54.208;19.128;2023-11-19T03:28:02;101933.81;;;4.54;62.40
83140;BME280;73027;54.208;19.128;2023-11-19T03:30:29;101937.22;;;4.56;62.17
83140;BME280;73027;54.208;19.128;2023-11-19T03:32:57;101928.69;;;4.51;62.26
83140;BME280;73027;54.208;19.128;2023-11-19T03:35:23;101929.50;;;4.47;62.28
83140;BME280;73027;54.208;19.128;2023-11-19T03:37:49;101926.75;;;4.29;61.83
83140;BME280;73027;54.208;19.128;2023-11-19T03:40:15;101927.53;;;4.25;61.85
83140;BME280;73027;54.208;19.128;2023-11-19T03:42:41;101920.66;;;4.18;62.15
83140;BME280;73027;54.208;19.128;2023-11-19T03:45:07;101920.69;;;4.16;62.01
83140;BME280;73027;54.208;19.128;2023-11-19T03:47:35;101915.56;;;4.18;62.77
83140;BME280;73027;54.208;19.128;2023-11-19T03:50:01;101906.31;;;4.26;62.43
83140;BME280;73027;54.208;19.128;2023-11-19T03:52:27;101898.72;;;4.30;62.89
83140;BME280;73027;54.208;19.128;2023-11-19T03:54:53;101892.75;;;4.28;62.30
83140;BME280;73027;54.208;19.128;2023-11-19T03:57:20;101891.94;;;4.34;62.27
83140;BME280;73027;54.208;19.128;2023-11-19T03:59:45;101886.03;;;4.38;62.14
83140;BME280;73027;54.208;19.128;2023-11-19T04:02:11;101878.34;;;4.37;62.04
83140;BME280;73027;54.208;19.128;2023-11-19T04:04:36;101883.47;;;4.35;61.58
83140;BME280;73027;54.208;19.128;2023-11-19T04:07:04;101874.03;;;4.28;61.53
83140;BME280;73027;54.208;19.128;2023-11-19T04:09:30;101870.56;;;4.20;61.59
83140;BME280;73027;54.208;19.128;2023-11-19T04:11:56;101867.22;;;4.27;62.13
83140;BME280;73027;54.208;19.128;2023-11-19T04:14:22;101868.09;;;4.27;62.00
83140;BME280;73027;54.208;19.128;2023-11-19T04:16:47;101862.16;;;4.28;61.54
83140;BME280;73027;54.208;19.128;2023-11-19T04:19:13;101852.00;;;4.35;61.50
83140;BME280;73027;54.208;19.128;2023-11-19T04:21:41;101843.47;;;4.32;61.30
83140;BME280;73027;54.208;19.128;2023-11-19T04:24:10;101846.88;;;4.33;61.68
83140;BME280;73027;54.208;19.128;2023-11-19T04:26:44;101843.44;;;4.29;61.26
83140;BME280;73027;54.208;19.128;2023-11-19T04:29:13;101849.41;;;4.30;61.69
83140;BME280;73027;54.208;19.128;2023-11-19T04:31:40;101837.53;;;4.32;61.31
83140;BME280;73027;54.208;19.128;2023-11-19T04:34:08;101829.84;;;4.27;61.30
83140;BME280;73027;54.208;19.128;2023-11-19T04:36:34;101831.53;;;4.30;61.13
83140;BME280;73027;54.208;19.128;2023-11-19T04:39:00;101834.09;;;4.30;61.55
83140;BME280;73027;54.208;19.128;2023-11-19T04:41:26;101837.47;;;4.24;61.31
83140;BME280;73027;54.208;19.128;2023-11-19T04:43:55;101835.75;;;4.25;62.00
83140;BME280;73027;54.208;19.128;2023-11-19T04:46:20;101834.06;;;4.24;62.14
83140;BME280;73027;54.208;19.128;2023-11-19T04:48:46;101829.81;;;4.24;61.89
83140;BME280;73027;54.208;19.128;2023-11-19T04:51:11;101817.94;;;4.28;61.73
83140;BME280;73027;54.208;19.128;2023-11-19T04:53:37;101813.66;;;4.27;61.58
83140;BME280;73027;54.208;19.128;2023-11-19T04:56:09;101794.91;;;4.20;61.69
83140;BME280;73027;54.208;19.128;2023-11-19T04:58:35;101801.72;;;4.21;62.37
83140;BME280;73027;54.208;19.128;2023-11-19T05:01:01;101781.25;;;4.14;62.17
83140;BME280;73027;54.208;19.128;2023-11-19T05:03:27;101782.09;;;4.14;62.24
83140;BME280;73027;54.208;19.128;2023-11-19T05:05:52;101776.13;;;4.11;62.48
83140;BME280;73027;54.208;19.128;2023-11-19T05:08:17;101774.38;;;4.07;62.55
83140;BME280;73027;54.208;19.128;2023-11-19T05:10:43;101768.38;;;4.02;62.80
83140;BME280;73027;54.208;19.128;2023-11-19T05:13:08;101749.66;;;3.97;62.63
83140;BME280;73027;54.208;19.128;2023-11-19T05:15:33;101749.69;;;4.00;63.12
83140;BME280;73027;54.208;19.128;2023-11-19T05:17:59;101751.41;;;4.02;62.56
83140;BME280;73027;54.208;19.128;2023-11-19T05:20:24;101759.03;;;3.99;62.85
83140;BME280;73027;54.208;19.128;2023-11-19T05:22:50;101757.31;;;3.97;63.13
83140;BME280;73027;54.208;19.128;2023-11-19T05:25:17;101752.19;;;3.95;62.90
83140;BME280;73027;54.208;19.128;2023-11-19T05:27:42;101732.59;;;3.88;62.75
83140;BME280;73027;54.208;19.128;2023-11-19T05:30:08;101747.91;;;3.91;62.86
83140;BME280;73027;54.208;19.128;2023-11-19T05:32:34;101746.19;;;3.89;62.70
83140;BME280;73027;54.208;19.128;2023-11-19T05:34:59;101740.19;;;3.83;62.94
83140;BME280;73027;54.208;19.128;2023-11-19T05:37:24;101749.53;;;3.81;62.84
83140;BME280;73027;54.208;19.128;2023-11-19T05:39:50;101747.75;;;3.74;63.21
83140;BME280;73027;54.208;19.128;2023-11-19T05:42:15;101749.41;;;3.69;63.06
83140;BME280;73027;54.208;19.128;2023-11-19T05:44:41;101738.31;;;3.66;63.11
83140;BME280;73027;54.208;19.128;2023-11-19T05:47:06;101734.91;;;3.67;62.90
83140;BME280;73027;54.208;19.128;2023-11-19T05:49:32;101736.59;;;3.63;63.16
83140;BME280;73027;54.208;19.128;2023-11-19T05:51:58;101740.84;;;3.63;63.12
83140;BME280;73027;54.208;19.128;2023-11-19T05:54:23;101734.84;;;3.59;62.97
83140;BME280;73027;54.208;19.128;2023-11-19T05:56:48;101730.59;;;3.55;63.38
83140;BME280;73027;54.208;19.128;2023-11-19T05:59:14;101728.03;;;3.57;63.00
83140;BME280;73027;54.208;19.128;2023-11-19T06:01:45;101724.59;;;3.53;63.13
83140;BME280;73027;54.208;19.128;2023-11-19T06:04:10;101715.19;;;3.46;62.92
83140;BME280;73027;54.208;19.128;2023-11-19T06:06:36;101718.59;;;3.48;63.02
83140;BME280;73027;54.208;19.128;2023-11-19T06:09:02;101718.59;;;3.48;63.13
83140;BME280;73027;54.208;19.128;2023-11-19T06:11:28;101707.56;;;3.48;63.26
83140;BME280;73027;54.208;19.128;2023-11-19T06:13:54;101692.25;;;3.43;63.23
83140;BME280;73027;54.208;19.128;2023-11-19T06:16:20;101663.22;;;3.29;63.05
83140;BME280;73027;54.208;19.128;2023-11-19T06:18:46;101690.50;;;3.39;63.08
83140;BME280;73027;54.208;19.128;2023-11-19T06:21:12;101687.94;;;3.38;63.16
83140;BME280;73027;54.208;19.128;2023-11-19T06:23:37;101680.25;;;3.36;62.97
83140;BME280;73027;54.208;19.128;2023-11-19T06:26:03;101681.16;;;3.38;63.25
83140;BME280;73027;54.208;19.128;2023-11-19T06:28:30;101662.41;;;3.31;63.24
83140;BME280;73027;54.208;19.128;2023-11-19T06:30:57;101676.91;;;3.39;63.10
83140;BME280;73027;54.208;19.128;2023-11-19T06:33:24;101666.75;;;3.42;63.16
83140;BME280;73027;54.208;19.128;2023-11-19T06:35:49;101672.72;;;3.42;63.53
83140;BME280;73027;54.208;19.128;2023-11-19T06:38:15;101669.34;;;3.46;63.11
83140;BME280;73027;54.208;19.128;2023-11-19T06:40:40;101668.47;;;3.44;62.74
83140;BME280;73027;54.208;19.128;2023-11-19T06:43:06;101665.91;;;3.44;63.31
83140;BME280;73027;54.208;19.128;2023-11-19T06:45:33;101659.16;;;3.46;63.48
83140;BME280;73027;54.208;19.128;2023-11-19T06:48:00;101645.50;;;3.38;63.12
83140;BME280;73027;54.208;19.128;2023-11-19T06:50:28;101652.38;;;3.48;63.11
83140;BME280;73027;54.208;19.128;2023-11-19T06:52:53;101649.84;;;3.47;62.78
83140;BME280;73027;54.208;19.128;2023-11-19T06:55:19;101655.78;;;3.47;63.06
83140;BME280;73027;54.208;19.128;2023-11-19T06:57:44;101651.53;;;3.46;62.64
83140;BME280;73027;54.208;19.128;2023-11-19T07:00:10;101642.97;;;3.38;62.84
83140;BME280;73027;54.208;19.128;2023-11-19T07:02:36;101654.06;;;3.43;62.63
83140;BME280;73027;54.208;19.128;2023-11-19T07:05:02;101651.50;;;3.45;62.73
83140;BME280;73027;54.208;19.128;2023-11-19T07:07:30;101660.03;;;3.48;62.64
83140;BME280;73027;54.208;19.128;2023-11-19T07:09:55;101643.94;;;3.52;62.67
83140;BME280;73027;54.208;19.128;2023-11-19T07:12:21;101621.84;;;3.50;62.67
83140;BME280;73027;54.208;19.128;2023-11-19T07:14:46;101637.22;;;3.63;62.36
83140;BME280;73027;54.208;19.128;2023-11-19T07:17:11;101630.44;;;3.62;62.32
83140;BME280;73027;54.208;19.128;2023-11-19T07:19:37;101627.91;;;3.62;62.18
83140;BME280;73027;54.208;19.128;2023-11-19T07:22:03;101630.47;;;3.68;62.12
83140;BME280;73027;54.208;19.128;2023-11-19T07:24:29;101623.69;;;3.67;62.26
83140;BME280;73027;54.208;19.128;2023-11-19T07:26:54;101623.72;;;3.72;62.02
83140;BME280;73027;54.208;19.128;2023-11-19T07:29:20;101627.09;;;3.71;61.47
83140;BME280;73027;54.208;19.128;2023-11-19T07:31:48;101616.03;;;3.66;61.69
83140;BME280;73027;54.208;19.128;2023-11-19T07:34:14;101616.91;;;3.71;62.31
83140;BME280;73027;54.208;19.128;2023-11-19T07:36:39;101616.94;;;3.75;61.73
83140;BME280;73027;54.208;19.128;2023-11-19T07:39:05;101613.59;;;3.81;61.70
83140;BME280;73027;54.208;19.128;2023-11-19T07:41:31;101608.56;;;3.86;61.83
83140;BME280;73027;54.208;19.128;2023-11-19T07:43:56;101610.28;;;3.93;61.82
83140;BME280;73027;54.208;19.128;2023-11-19T07:46:21;101601.00;;;4.01;61.27
83140;BME280;73027;54.208;19.128;2023-11-19T07:48:47;101602.72;;;4.06;61.93
83140;BME280;73027;54.208;19.128;2023-11-19T07:51:13;101587.47;;;4.12;61.51
83140;BME280;73027;54.208;19.128;2023-11-19T07:53:42;101586.66;;;4.19;61.19
83140;BME280;73027;54.208;19.128;2023-11-19T07:56:08;101585.00;;;4.29;61.15
83140;BME280;73027;54.208;19.128;2023-11-19T07:58:34;101575.72;;;4.40;61.54
83140;BME280;73027;54.208;19.128;2023-11-19T08:01:00;101583.44;;;4.58;60.38
83140;BME280;73027;54.208;19.128;2023-11-19T08:03:27;101582.59;;;4.61;60.22
83140;BME280;73027;54.208;19.128;2023-11-19T08:05:55;101570.63;;;4.49;60.11
83140;BME280;73027;54.208;19.128;2023-11-19T08:08:22;101570.59;;;4.42;60.54
83140;BME280;73027;54.208;19.128;2023-11-19T08:10:47;101564.63;;;4.35;60.34
83140;BME280;73027;54.208;19.128;2023-11-19T08:13:13;101565.44;;;4.29;60.75
83140;BME280;73027;54.208;19.128;2023-11-19T08:15:38;101542.47;;;4.22;60.90
83140;BME280;73027;54.208;19.128;2023-11-19T08:18:04;101561.16;;;4.21;60.89
83140;BME280;73027;54.208;19.128;2023-11-19T08:20:30;101551.78;;;4.12;60.92
83140;BME280;73027;54.208;19.128;2023-11-19T08:22:55;101546.59;;;4.02;60.79
83140;BME280;73027;54.208;19.128;2023-11-19T08:25:21;101538.91;;;3.94;61.00
83140;BME280;73027;54.208;19.128;2023-11-19T08:27:46;101536.38;;;3.90;61.08
83140;BME280;73027;54.208;19.128;2023-11-19T08:30:12;101530.38;;;3.84;61.45
83140;BME280;73027;54.208;19.128;2023-11-19T08:32:37;101526.06;;;3.76;61.68
83140;BME280;73027;54.208;19.128;2023-11-19T08:35:03;101520.16;;;3.80;62.20
83140;BME280;73027;54.208;19.128;2023-11-19T08:37:28;101506.56;;;3.82;61.95
83140;BME280;73027;54.208;19.128;2023-11-19T08:39:54;101514.25;;;3.84;62.41
83140;BME280;73027;54.208;19.128;2023-11-19T08:42:19;101510.00;;;3.84;62.32
83140;BME280;73027;54.208;19.128;2023-11-19T08:44:51;101504.91;;;3.84;62.96
83140;BME280;73027;54.208;19.128;2023-11-19T08:47:19;101493.00;;;3.83;62.63
83140;BME280;73027;54.208;19.128;2023-11-19T08:49:45;101491.31;;;3.84;62.63
83140;BME280;73027;54.208;19.128;2023-11-19T08:52:11;101503.25;;;3.90;62.92
83140;BME280;73027;54.208;19.128;2023-11-19T08:54:37;101491.38;;;3.98;62.99
83140;BME280;73027;54.208;19.128;2023-11-19T08:57:03;101488.00;;;4.06;62.96
83140;BME280;73027;54.208;19.128;2023-11-19T08:59:29;101480.41;;;4.09;62.82
83140;BME280;73027;54.208;19.128;2023-11-19T09:01:55;101481.25;;;4.16;63.04
83140;BME280;73027;54.208;19.128;2023-11-19T09:04:21;101480.41;;;4.15;62.77
83140;BME280;73027;54.208;19.128;2023-11-19T09:06:48;101471.06;;;4.13;62.86
83140;BME280;73027;54.208;19.128;2023-11-19T09:09:13;101467.66;;;4.15;62.89
83140;BME280;73027;54.208;19.128;2023-11-19T09:11:39;101460.00;;;4.12;62.98
83140;BME280;73027;54.208;19.128;2023-11-19T09:14:04;101451.50;;;4.12;63.02
83140;BME280;73027;54.208;19.128;2023-11-19T09:16:29;101464.22;;;4.13;62.87
83140;BME280;73027;54.208;19.128;2023-11-19T09:18:55;101448.06;;;4.10;63.02
83140;BME280;73027;54.208;19.128;2023-11-19T09:21:20;101452.34;;;4.09;63.82
83140;BME280;73027;54.208;19.128;2023-11-19T09:23:46;101434.47;;;4.06;63.70
83140;BME280;73027;54.208;19.128;2023-11-19T09:26:13;101431.06;;;4.03;63.76
83140;BME280;73027;54.208;19.128;2023-11-19T09:28:38;101442.13;;;4.06;63.18
83140;BME280;73027;54.208;19.128;2023-11-19T09:31:15;101438.72;;;4.03;64.02
83140;BME280;73027;54.208;19.128;2023-11-19T09:33:41;101435.31;;;4.04;63.96
83140;BME280;73027;54.208;19.128;2023-11-19T09:36:08;101426.84;;;4.08;64.05
83140;BME280;73027;54.208;19.128;2023-11-19T09:38:33;101431.91;;;4.06;64.50
83140;BME280;73027;54.208;19.128;2023-11-19T09:40:59;101438.72;;;4.06;63.60
83140;BME280;73027;54.208;19.128;2023-11-19T09:43:33;101423.41;;;4.06;64.37
83140;BME280;73027;54.208;19.128;2023-11-19T09:46:02;101426.00;;;4.12;64.14
83140;BME280;73027;54.208;19.128;2023-11-19T09:48:33;101418.38;;;4.16;64.36
83140;BME280;73027;54.208;19.128;2023-11-19T09:51:00;101413.28;;;4.22;63.76
83140;BME280;73027;54.208;19.128;2023-11-19T09:53:26;101384.34;;;4.10;64.22
83140;BME280;73027;54.208;19.128;2023-11-19T09:55:52;101404.78;;;4.29;64.29
83140;BME280;73027;54.208;19.128;2023-11-19T09:58:18;101389.50;;;4.37;63.96
83140;BME280;73027;54.208;19.128;2023-11-19T10:00:43;101367.41;;;4.31;64.19
83140;BME280;73027;54.208;19.128;2023-11-19T10:03:11;101353.78;;;4.26;63.73
83140;BME280;73027;54.208;19.128;2023-11-19T10:05:37;101370.81;;;4.43;64.19
83140;BME280;73027;54.208;19.128;2023-11-19T10:08:04;101371.66;;;4.49;63.92
83140;BME280;73027;54.208;19.128;2023-11-19T10:10:30;101359.75;;;4.53;64.13
83140;BME280;73027;54.208;19.128;2023-11-19T10:12:55;101347.84;;;4.61;64.55
83140;BME280;73027;54.208;19.128;2023-11-19T10:15:25;101362.34;;;4.63;63.37
83140;BME280;73027;54.208;19.128;2023-11-19T10:17:57;101360.63;;;4.58;62.85
83140;BME280;73027;54.208;19.128;2023-11-19T10:20:22;101338.50;;;4.51;63.60
83140;BME280;73027;54.208;19.128;2023-11-19T10:22:48;101349.56;;;4.50;63.79
83140;BME280;73027;54.208;19.128;2023-11-19T10:27:50;101326.59;;;4.48;63.52
83140;BME280;73027;54.208;19.128;2023-11-19T10:30:33;101319.78;;;4.49;63.45
83140;BME280;73027;54.208;19.128;2023-11-19T10:33:10;101307.91;;;4.54;63.24
83140;BME280;73027;54.208;19.128;2023-11-19T10:35:51;101307.06;;;4.50;63.07
83140;BME280;73027;54.208;19.128;2023-11-19T10:38:19;101303.66;;;4.42;63.44
83140;BME280;73027;54.208;19.128;2023-11-19T10:40:45;101315.53;;;4.45;62.81
83140;BME280;73027;54.208;19.128;2023-11-19T10:43:12;101300.25;;;4.37;63.50
83140;BME280;73027;54.208;19.128;2023-11-19T10:45:38;101296.00;;;4.38;64.19
83140;BME280;73027;54.208;19.128;2023-11-19T10:48:04;101291.75;;;4.40;63.54
83140;BME280;73027;54.208;19.128;2023-11-19T10:50:33;101285.78;;;4.35;63.18
83140;BME280;73027;54.208;19.128;2023-11-19T10:52:59;101288.34;;;4.36;63.37
83140;BME280;73027;54.208;19.128;2023-11-19T10:55:36;101271.34;;;4.35;63.41
83140;BME280;73027;54.208;19.128;2023-11-19T10:58:10;101284.94;;;4.52;63.04
83140;BME280;73027;54.208;19.128;2023-11-19T11:00:48;101267.03;;;4.79;62.90
83140;BME280;73027;54.208;19.128;2023-11-19T11:03:21;101258.47;;;5.09;62.69
83140;BME280;73027;54.208;19.128;2023-11-19T11:05:49;101257.47;;;5.38;61.44
83140;BME280;73027;54.208;19.128;2023-11-19T11:08:15;101252.31;;;5.45;60.27
83140;BME280;73027;54.208;19.128;2023-11-19T11:11:01;101239.53;;;5.51;60.33
83140;BME280;73027;54.208;19.128;2023-11-19T11:13:27;101242.84;;;5.64;60.00
83140;BME280;73027;54.208;19.128;2023-11-19T11:15:55;101228.38;;;5.66;59.68
83140;BME280;73027;54.208;19.128;2023-11-19T11:18:23;101226.63;;;5.72;60.28
83140;BME280;73027;54.208;19.128;2023-11-19T11:20:52;101223.28;;;5.63;59.82
83140;BME280;73027;54.208;19.128;2023-11-19T11:28:48;101214.88;;;5.41;60.06
83140;BME280;73027;54.208;19.128;2023-11-19T11:31:44;101211.53;;;5.32;59.66
83140;BME280;73027;54.208;19.128;2023-11-19T11:37:39;101201.34;;;5.24;60.18
83140;BME280;73027;54.208;19.128;2023-11-19T11:40:17;101211.59;;;5.19;61.01
83140;BME280;73027;54.208;19.128;2023-11-19T11:42:44;101197.16;;;5.11;61.08
83140;BME280;73027;54.208;19.128;2023-11-19T11:45:14;101175.13;;;4.89;61.01
83140;BME280;73027;54.208;19.128;2023-11-19T11:50:13;101186.16;;;4.91;60.66
83140;BME280;73027;54.208;19.128;2023-11-19T11:56:08;101186.25;;;4.74;61.29
83140;BME280;73027;54.208;19.128;2023-11-19T11:58:22;101165.88;;;4.60;61.79
83140;BME280;73027;54.208;19.128;2023-11-19T12:00:51;101169.28;;;4.59;62.07
83140;BME280;73027;54.208;19.128;2023-11-19T12:03:20;101170.13;;;4.66;62.27
83140;BME280;73027;54.208;19.128;2023-11-19T12:05:46;101170.97;;;4.66;62.08
83140;BME280;73027;54.208;19.128;2023-11-19T12:08:12;101164.16;;;4.67;62.29
83140;BME280;73027;54.208;19.128;2023-11-19T12:10:47;101154.78;;;4.67;62.25
83140;BME280;73027;54.208;19.128;2023-11-19T12:13:14;101150.53;;;4.71;62.50
83140;BME280;73027;54.208;19.128;2023-11-19T12:18:25;101146.28;;;4.74;62.61
83140;BME280;73027;54.208;19.128;2023-11-19T12:20:51;101132.72;;;4.59;62.58
83140;BME280;73027;54.208;19.128;2023-11-19T12:23:17;101128.47;;;4.56;62.90
83140;BME280;73027;54.208;19.128;2023-11-19T12:25:43;101125.88;;;4.64;63.15
83140;BME280;73027;54.208;19.128;2023-11-19T12:28:13;101130.13;;;4.66;62.81
83140;BME280;73027;54.208;19.128;2023-11-19T12:30:39;101118.22;;;4.65;62.14
83140;BME280;73027;54.208;19.128;2023-11-19T12:33:11;101114.00;;;4.61;63.05
83140;BME280;73027;54.208;19.128;2023-11-19T12:35:40;101116.50;;;4.67;63.00
83140;BME280;73027;54.208;19.128;2023-11-19T12:38:06;101095.25;;;4.65;62.83
83140;BME280;73027;54.208;19.128;2023-11-19T12:40:32;101093.56;;;4.69;63.00
83140;BME280;73027;54.208;19.128;2023-11-19T12:42:57;101097.75;;;4.76;62.50
83140;BME280;73027;54.208;19.128;2023-11-19T12:45:24;101092.66;;;4.82;62.95
83140;BME280;73027;54.208;19.128;2023-11-19T12:47:49;101085.81;;;4.84;62.63
83140;BME280;73027;54.208;19.128;2023-11-19T12:50:17;101079.03;;;4.80;63.27
83140;BME280;73027;54.208;19.128;2023-11-19T12:52:57;101074.75;;;4.85;62.79
83140;BME280;73027;54.208;19.128;2023-11-19T12:55:27;101065.41;;;4.79;62.73
83140;BME280;73027;54.208;19.128;2023-11-19T12:57:54;101068.81;;;4.83;63.30
83140;BME280;73027;54.208;19.128;2023-11-19T13:00:24;101056.84;;;4.93;62.87
83140;BME280;73027;54.208;19.128;2023-11-19T13:02:54;101051.69;;;4.99;63.04
83140;BME280;73027;54.208;19.128;2023-11-19T13:08:04;101048.38;;;4.89;63.59
83140;BME280;73027;54.208;19.128;2023-11-19T13:10:34;101028.81;;;4.84;63.43
83140;BME280;73027;54.208;19.128;2023-11-19T13:13:15;101035.66;;;4.77;63.63